Time;durP1;ratioP1;P1;durP2;ratioP2;P2;SDS_P1;SDS_P2;PMS_P1;PMS_P2;Temp;Humidity;BMP_temperature;BMP_pressure;BME280_temperature;BME280_humidity;BME280_pressure;Samples;Min_cycle;Max_cycle;Signal;HPM_P1;HPM_P2
2022/08/31 00:04:16;;;;;;;21.85;13.95;;;;;;;20.61;85.29;96861.56;5024898;28;20053;-62
2022/08/31 00:06:42;;;;;;;18.85;12.82;;;;;;;20.15;85.24;96794.41;5023198;28;20057;-62
2022/08/31 00:09:09;;;;;;;18.85;12.73;;;;;;;20.66;84.85;96861.06;5023101;28;20057;-61
2022/08/31 00:11:37;;;;;;;21.50;13.77;;;;;;;20.23;85.96;96798.63;5024839;28;20057;-64
2022/08/31 00:14:08;;;;;;;17.25;12.05;;;;;;;20.56;85.92;96854.47;5024670;28;20056;-62
2022/08/31 00:16:40;;;;;;;22.52;13.15;;;;;;;20.59;85.52;96841.50;5024751;28;20068;-63
2022/08/31 00:19:07;;;;;;;22.55;12.88;;;;;;;20.55;85.51;96847.22;5024586;28;20068;-61
2022/08/31 00:21:34;;;;;;;23.02;13.55;;;;;;;20.41;86.83;96847.59;5023941;28;20216;-64
2022/08/31 00:24:01;;;;;;;21.08;13.82;;;;;;;20.39;87.42;96846.44;5024557;28;20123;-61
2022/08/31 00:26:27;;;;;;;19.08;13.48;;;;;;;19.94;87.34;96772.38;5022733;28;20072;-63
2022/08/31 00:28:54;;;;;;;18.90;13.23;;;;;;;20.41;87.50;96841.94;5024287;28;20049;-62
2022/08/31 00:31:21;;;;;;;17.30;13.77;;;;;;;20.40;86.54;96839.59;5022999;28;20053;-62
2022/08/31 00:33:51;;;;;;;17.70;13.00;;;;;;;19.94;85.62;96759.13;5023047;28;20490;-61
2022/08/31 00:36:20;;;;;;;19.27;13.27;;;;;;;20.14;85.30;96806.88;5023272;28;20140;-61
2022/08/31 00:38:48;;;;;;;19.90;12.60;;;;;;;20.38;86.04;96847.66;5024240;28;20065;-64
2022/08/31 00:41:17;;;;;;;20.30;13.82;;;;;;;20.43;86.17;96849.97;5029807;28;20061;-62
2022/08/31 00:43:58;;;;;;;16.05;12.60;;;;;;;20.35;85.47;96842.91;5042675;28;20552;-61
2022/08/31 00:46:30;;;;;;;17.67;12.48;;;;;;;20.20;85.81;96838.88;5043050;28;20063;-61
2022/08/31 00:49:08;;;;;;;19.52;12.80;;;;;;;20.03;86.98;96823.97;5044516;28;20065;-64
2022/08/31 00:51:40;;;;;;;24.38;13.20;;;;;;;20.08;87.59;96839.53;5044211;28;20474;-61
2022/08/31 00:54:09;;;;;;;19.88;12.95;;;;;;;19.66;87.47;96767.41;5042775;28;20056;-63
2022/08/31 00:56:38;;;;;;;22.33;11.82;;;;;;;20.20;85.89;96841.69;5047480;28;20427;-62
2022/08/31 00:59:05;;;;;;;23.48;13.38;;;;;;;19.87;85.98;96806.28;5048152;28;20495;-63
2022/08/31 01:01:32;;;;;;;25.00;13.57;;;;;;;20.02;87.51;96844.09;5046981;28;20053;-62
2022/08/31 01:03:59;;;;;;;21.38;12.40;;;;;;;20.05;87.40;96835.56;5048495;28;20127;-61
2022/08/31 01:06:26;;;;;;;21.83;12.85;;;;;;;19.75;87.02;96787.28;5048402;28;20052;-60
2022/08/31 01:08:56;;;;;;;18.15;12.82;;;;;;;20.00;86.72;96826.84;5046857;28;20530;-60
2022/08/31 01:11:23;;;;;;;18.38;12.57;;;;;;;19.62;87.47;96775.16;5047946;28;20059;-63
2022/08/31 01:13:50;;;;;;;21.55;12.75;;;;;;;19.93;87.61;96819.41;5046972;28;20057;-62
2022/08/31 01:16:48;;;;;;;20.88;12.48;;;;;;;18.56;88.76;96644.66;5048946;28;20835;-61
2022/08/31 01:19:27;;;;;;;20.98;12.38;;;;;;;19.78;89.31;96814.50;5040096;28;20138;-62
2022/08/31 01:22:28;;;;;;;40.33;20.02;;;;;;;19.78;88.79;96806.06;5046731;28;20071;-62
2022/08/31 01:24:57;;;;;;;28.30;15.65;;;;;;;18.85;88.52;96671.69;5048457;28;20057;-61
2022/08/31 01:27:29;;;;;;;25.08;13.88;;;;;;;19.79;87.45;96810.50;5047724;28;20511;-62
2022/08/31 01:30:00;;;;;;;21.65;13.73;;;;;;;19.79;87.85;96811.25;5047958;28;20057;-61
2022/08/31 01:32:27;;;;;;;19.80;14.10;;;;;;;19.79;88.12;96804.88;5046117;28;20055;-61
2022/08/31 01:34:54;;;;;;;19.00;12.95;;;;;;;19.60;88.75;96819.75;5047202;28;20056;-61
2022/08/31 01:37:21;;;;;;;23.55;12.68;;;;;;;19.63;88.48;96811.25;5046099;28;20049;-62
2022/08/31 01:39:56;;;;;;;20.50;12.93;;;;;;;19.13;88.76;96752.50;5047254;28;20158;-61
2022/08/31 01:42:22;;;;;;;19.13;11.98;;;;;;;19.45;89.23;96820.06;5028235;28;20138;-61
2022/08/31 01:45:03;;;;;;;20.15;13.05;;;;;;;19.09;88.59;96767.84;5007880;28;20073;-61
2022/08/31 01:47:30;;;;;;;17.33;12.32;;;;;;;18.96;89.26;96756.47;5006688;28;20080;-61
2022/08/31 01:49:56;;;;;;;19.52;13.70;;;;;;;19.24;89.77;96797.19;5007812;28;20054;-62
2022/08/31 01:52:25;;;;;;;19.35;12.65;;;;;;;19.32;90.45;96805.09;5007390;28;20518;-61
2022/08/31 01:54:54;;;;;;;20.77;12.93;;;;;;;18.89;90.51;96736.94;5007397;28;20081;-61
2022/08/31 01:57:20;;;;;;;20.45;13.45;;;;;;;18.69;91.20;96710.91;5007305;28;20069;-61
2022/08/31 02:00:03;;;;;;;20.98;13.98;;;;;;;19.18;90.75;96801.75;5007321;28;20073;-61
2022/08/31 02:02:30;;;;;;;17.63;12.55;;;;;;;18.81;90.68;96741.13;5007480;28;20050;-62
2022/08/31 02:04:57;;;;;;;19.83;13.23;;;;;;;19.18;91.39;96816.59;5005724;28;20082;-63
2022/08/31 02:07:24;;;;;;;19.95;13.52;;;;;;;18.86;90.66;96754.66;5005833;28;20494;-62
2022/08/31 02:09:52;;;;;;;21.17;14.13;;;;;;;19.05;90.46;96767.91;5006984;28;20523;-62
2022/08/31 02:12:19;;;;;;;25.92;14.13;;;;;;;19.05;89.98;96779.13;5007246;28;20065;-62
2022/08/31 02:14:46;;;;;;;17.13;12.90;;;;;;;18.93;90.38;96765.75;5007717;28;20633;-62
2022/08/31 02:17:12;;;;;;;21.70;12.27;;;;;;;19.07;90.53;96804.78;5005460;28;20061;-62
2022/08/31 02:19:39;;;;;;;18.23;12.95;;;;;;;18.33;89.92;96690.34;5007255;28;20061;-62
2022/08/31 02:22:06;;;;;;;18.70;13.05;;;;;;;19.22;90.13;96805.28;5021639;28;20533;-61
2022/08/31 02:24:33;;;;;;;20.42;12.93;;;;;;;19.25;89.62;96810.81;5022021;28;20062;-63
2022/08/31 02:26:59;;;;;;;19.35;12.40;;;;;;;19.07;88.89;96787.94;5021679;28;21209;-62
2022/08/31 02:29:26;;;;;;;19.65;12.82;;;;;;;18.87;88.92;96759.06;5021962;28;20482;-62
2022/08/31 02:31:53;;;;;;;16.90;12.27;;;;;;;18.87;89.67;96767.50;5006879;28;20054;-62
2022/08/31 02:34:20;;;;;;;19.70;13.15;;;;;;;18.56;88.88;96684.72;5007142;28;20069;-61
2022/08/31 02:36:46;;;;;;;21.92;13.07;;;;;;;19.16;88.77;96809.78;5005446;28;20120;-62
2022/08/31 02:39:13;;;;;;;21.92;13.75;;;;;;;18.28;90.88;96702.06;5006908;28;20062;-63
2022/08/31 02:41:40;;;;;;;17.60;11.82;;;;;;;18.99;89.88;96797.72;5022175;28;20045;-61
2022/08/31 02:44:07;;;;;;;18.27;12.73;;;;;;;19.09;88.81;96812.75;5046442;28;20056;-61
2022/08/31 02:46:34;;;;;;;16.40;12.13;;;;;;;18.86;89.74;96810.00;5044698;28;20135;-61
2022/08/31 02:49:02;;;;;;;15.38;11.38;;;;;;;18.90;90.04;96800.31;5045006;28;20057;-61
2022/08/31 02:51:29;;;;;;;15.63;12.15;;;;;;;18.81;91.13;96818.94;5046253;28;20075;-61
2022/08/31 02:53:55;;;;;;;19.33;12.48;;;;;;;18.50;90.82;96781.81;5044519;28;20057;-61
2022/08/31 02:56:22;;;;;;;23.42;14.07;;;;;;;18.69;91.25;96817.53;5044141;28;20056;-63
2022/08/31 02:58:53;;;;;;;19.27;12.82;;;;;;;17.26;91.46;96602.16;5045644;28;20061;-62
2022/08/31 03:01:25;;;;;;;17.95;12.95;;;;;;;18.21;90.85;96744.25;5045554;28;20056;-62
2022/08/31 03:03:52;;;;;;;21.67;12.52;;;;;;;18.67;91.15;96805.94;5044647;28;20057;-62
2022/08/31 03:06:19;;;;;;;21.85;13.18;;;;;;;18.65;91.63;96810.41;5044412;28;20057;-63
2022/08/31 03:08:46;;;;;;;19.98;12.75;;;;;;;18.70;91.46;96813.50;5045771;28;20416;-62
2022/08/31 03:11:13;;;;;;;16.52;11.65;;;;;;;18.71;90.48;96803.88;5046058;28;20104;-63
2022/08/31 03:13:41;;;;;;;17.90;12.48;;;;;;;18.58;91.78;96811.31;5045366;28;20045;-62
2022/08/31 03:16:12;;;;;;;19.92;11.55;;;;;;;18.38;91.18;96785.25;5044407;28;20059;-64
2022/08/31 03:18:38;;;;;;;20.08;11.80;;;;;;;18.49;91.92;96808.28;5043694;28;20059;-62
2022/08/31 03:21:05;;;;;;;21.73;13.20;;;;;;;18.37;91.62;96783.63;5044315;28;20052;-63
2022/08/31 03:23:32;;;;;;;16.88;11.45;;;;;;;18.15;91.63;96781.63;5044991;28;20049;-62
2022/08/31 03:25:59;;;;;;;16.58;11.93;;;;;;;17.81;91.74;96723.69;5044102;28;20057;-61
2022/08/31 03:28:25;;;;;;;15.93;12.35;;;;;;;18.39;92.12;96814.88;5043870;28;20049;-65
2022/08/31 03:30:52;;;;;;;22.65;12.25;;;;;;;18.37;92.72;96817.28;5045815;28;20053;-62
2022/08/31 03:33:19;;;;;;;16.67;11.65;;;;;;;17.87;92.96;96738.03;5045494;28;20411;-62
2022/08/31 03:35:46;;;;;;;25.60;13.20;;;;;;;18.30;93.32;96817.41;5045478;28;20088;-61
2022/08/31 03:38:14;;;;;;;17.40;12.43;;;;;;;18.29;93.83;96815.03;5044675;28;20053;-63
2022/08/31 03:40:42;;;;;;;15.32;12.18;;;;;;;18.30;93.11;96825.81;5044974;28;20064;-62
2022/08/31 03:43:10;;;;;;;18.90;12.57;;;;;;;18.23;92.89;96814.72;5005371;28;20547;-62
2022/08/31 03:45:39;;;;;;;16.67;12.35;;;;;;;18.09;93.24;96817.75;5004022;28;20133;-62
2022/08/31 03:48:06;;;;;;;17.10;11.95;;;;;;;17.84;92.02;96800.53;5004858;28;20060;-62
2022/08/31 03:50:39;;;;;;;20.30;12.57;;;;;;;18.33;91.44;96826.97;5004242;28;20133;-62
2022/08/31 03:53:06;;;;;;;16.42;12.30;;;;;;;17.66;91.68;96722.34;5003402;28;20053;-62
2022/08/31 03:55:35;;;;;;;22.70;13.75;;;;;;;18.46;92.02;96848.44;5005110;28;20065;-62
2022/08/31 03:58:02;;;;;;;16.67;11.77;;;;;;;18.39;91.04;96826.09;5003756;28;20058;-61
2022/08/31 04:00:30;;;;;;;17.90;11.48;;;;;;;18.51;90.50;96833.13;5003777;28;20058;-61
2022/08/31 04:02:58;;;;;;;21.00;13.38;;;;;;;18.43;90.85;96838.03;5003439;28;20533;-62
2022/08/31 04:05:27;;;;;;;17.90;12.90;;;;;;;18.09;91.32;96823.34;5003799;28;20061;-61
2022/08/31 04:07:54;;;;;;;18.50;12.95;;;;;;;18.53;91.21;96837.06;5004657;28;20057;-62
2022/08/31 04:10:21;;;;;;;15.68;12.90;;;;;;;18.60;91.18;96848.19;5005507;28;20081;-61
2022/08/31 04:12:49;;;;;;;17.58;12.35;;;;;;;18.72;90.01;96850.34;5003529;28;20049;-64
2022/08/31 04:15:17;;;;;;;18.38;12.70;;;;;;;18.39;89.24;96798.03;5005018;28;20108;-61
2022/08/31 04:17:45;;;;;;;17.63;12.65;;;;;;;18.74;89.14;96836.69;5003311;28;20559;-62
2022/08/31 04:20:13;;;;;;;20.85;11.82;;;;;;;18.73;88.66;96840.69;5003223;28;20068;-63
2022/08/31 04:22:39;;;;;;;17.08;11.50;;;;;;;18.20;89.24;96795.94;5004308;28;20426;-61
2022/08/31 04:25:09;;;;;;;19.90;11.63;;;;;;;18.93;87.88;96840.75;5004449;28;20521;-63
2022/08/31 04:27:37;;;;;;;21.67;10.95;;;;;;;18.94;87.41;96845.13;5004919;28;20452;-62
2022/08/31 04:30:06;;;;;;;14.98;11.82;;;;;;;18.35;87.40;96746.00;5004004;28;20058;-62
2022/08/31 04:32:34;;;;;;;15.40;11.05;;;;;;;19.14;86.34;96838.31;5003812;28;20081;-61
2022/08/31 04:35:02;;;;;;;19.30;12.32;;;;;;;19.24;86.09;96837.31;5004629;28;20127;-61
2022/08/31 04:37:29;;;;;;;19.30;12.77;;;;;;;19.46;85.61;96838.50;5004570;28;20054;-61
2022/08/31 04:39:56;;;;;;;21.77;11.93;;;;;;;18.80;83.89;96728.31;5003790;28;20058;-61
2022/08/31 04:42:29;;;;;;;25.20;12.65;;;;;;;19.91;83.50;96840.72;5030056;28;20056;-63
2022/08/31 04:44:55;;;;;;;15.90;11.88;;;;;;;19.58;82.40;96764.75;5044044;28;20056;-61
2022/08/31 04:47:22;;;;;;;18.90;11.98;;;;;;;19.92;80.86;96786.88;5042906;28;20055;-62
2022/08/31 04:49:49;;;;;;;20.35;12.27;;;;;;;19.11;80.19;96642.63;5042671;28;20057;-62
2022/08/31 04:52:16;;;;;;;20.58;11.90;;;;;;;20.61;78.90;96845.47;5044184;28;20067;-65
2022/08/31 04:54:42;;;;;;;25.50;10.65;;;;;;;20.65;78.59;96845.38;5024775;28;20053;-60
2022/08/31 04:57:09;;;;;;;22.20;11.07;;;;;;;20.67;77.79;96826.03;5004126;28;20058;-62
2022/08/31 04:59:36;;;;;;;17.67;11.07;;;;;;;20.65;76.51;96784.25;5002888;28;20059;-59
2022/08/31 05:02:02;;;;;;;17.17;11.82;;;;;;;21.00;76.66;96830.41;5002312;28;20054;-61
2022/08/31 05:04:30;;;;;;;18.10;11.02;;;;;;;21.11;76.23;96827.28;5004410;28;20070;-62
2022/08/31 05:06:57;;;;;;;15.50;10.20;;;;;;;21.22;75.61;96831.38;5004218;28;20082;-61
2022/08/31 05:09:24;;;;;;;18.02;10.38;;;;;;;21.22;74.85;96824.94;5003717;28;20054;-61
2022/08/31 05:11:53;;;;;;;17.38;10.52;;;;;;;21.33;75.10;96825.44;5004236;28;20057;-62
2022/08/31 05:14:21;;;;;;;18.50;11.45;;;;;;;21.55;73.91;96837.69;5003916;28;20069;-61
2022/08/31 05:16:49;;;;;;;16.58;10.88;;;;;;;21.67;73.55;96834.88;5002771;28;20050;-61
2022/08/31 05:19:17;;;;;;;14.43;10.77;;;;;;;20.87;73.53;96706.41;5004156;28;20049;-62
2022/08/31 05:21:44;;;;;;;20.63;10.00;;;;;;;21.76;73.38;96829.44;5004161;28;20092;-61
2022/08/31 05:24:14;;;;;;;14.35;10.80;;;;;;;21.59;73.45;96779.94;5004208;28;20499;-61
2022/08/31 05:26:46;;;;;;;14.60;9.68;;;;;;;21.75;72.88;96793.97;5002761;28;20057;-61
2022/08/31 05:29:15;;;;;;;15.82;10.82;;;;;;;21.73;72.41;96765.44;5004401;28;20057;-61
2022/08/31 05:31:43;;;;;;;19.63;10.75;;;;;;;20.34;72.26;96526.25;5003833;28;20509;-63
2022/08/31 05:34:16;;;;;;;21.97;10.27;;;;;;;22.38;71.18;96819.41;5004169;28;20425;-61
2022/08/31 05:36:44;;;;;;;16.13;9.95;;;;;;;22.43;70.89;96816.78;5004032;28;20057;-61
2022/08/31 05:39:12;;;;;;;17.50;11.13;;;;;;;21.49;70.15;96667.53;5002186;28;20062;-64
2022/08/31 05:41:41;;;;;;;20.42;11.48;;;;;;;22.66;68.90;96818.47;5012568;28;20506;-61
2022/08/31 05:44:09;;;;;;;31.23;18.70;;;;;;;22.75;68.10;96815.72;5045760;28;20049;-63
2022/08/31 05:46:36;;;;;;;23.90;13.48;;;;;;;20.32;68.14;96427.44;5020174;28;20064;-66
2022/08/31 05:49:05;;;;;;;27.90;12.95;;;;;;;23.00;68.59;96817.72;5012407;28;20049;-70
2022/08/31 05:51:32;;;;;;;16.58;10.88;;;;;;;21.82;68.95;96623.78;5018029;28;20077;-68
2022/08/31 05:54:04;;;;;;;18.98;10.80;;;;;;;23.18;67.63;96812.19;5013735;28;20136;-62
2022/08/31 05:56:31;;;;;;;20.75;10.40;;;;;;;22.29;66.96;96642.25;5021644;28;20053;-68
2022/08/31 05:58:58;;;;;;;25.35;10.57;;;;;;;22.04;67.58;96597.22;5012346;28;20467;-75
2022/08/31 06:01:29;;;;;;;11.18;9.93;;;;;;;22.65;67.74;96691.84;5025528;28;20057;-66
2022/08/31 06:03:57;;;;;;;18.33;10.05;;;;;;;23.56;67.70;96807.16;5023325;28;20052;-61
2022/08/31 06:06:24;;;;;;;18.40;11.00;;;;;;;23.02;68.09;96744.56;5022871;28;20415;-73
2022/08/31 06:08:51;;;;;;;23.65;10.32;;;;;;;23.65;67.47;96804.38;5026855;28;20053;-66
2022/08/31 06:11:21;;;;;;;15.55;9.93;;;;;;;23.80;66.92;96808.25;5022137;28;20082;-69
2022/08/31 06:13:51;;;;;;;20.88;10.13;;;;;;;22.68;66.63;96606.22;5014384;28;20421;-70
2022/08/31 06:16:19;;;;;;;15.63;10.43;;;;;;;23.96;64.47;96768.41;5006855;28;20057;-62
2022/08/31 06:18:49;;;;;;;16.95;9.63;;;;;;;24.13;64.28;96800.91;5006918;28;20432;-62
2022/08/31 06:21:22;;;;;;;16.65;9.68;;;;;;;24.35;63.60;96798.78;5007825;28;20098;-65
2022/08/31 06:23:51;;;;;;;14.30;9.43;;;;;;;24.54;63.03;96796.78;5006034;28;20488;-68
2022/08/31 06:26:20;;;;;;;16.55;9.90;;;;;;;24.71;62.40;96800.94;5006987;28;20052;-70
2022/08/31 06:28:50;;;;;;;17.42;9.45;;;;;;;23.35;61.76;96605.19;5007004;28;20061;-68
2022/08/31 06:31:22;;;;;;;23.02;9.85;;;;;;;25.09;61.34;96799.28;5008511;28;20053;-71
2022/08/31 06:33:50;;;;;;;15.90;10.57;;;;;;;25.36;60.84;96803.38;5006164;28;20049;-69
2022/08/31 06:36:20;;;;;;;15.70;10.18;;;;;;;24.51;60.17;96682.41;5022327;28;20056;-66
2022/08/31 06:38:47;;;;;;;20.88;10.40;;;;;;;25.25;60.31;96803.84;5025908;28;20057;-62
2022/08/31 06:41:17;;;;;;;24.15;11.27;;;;;;;25.18;61.28;96802.09;5009690;28;20065;-65
2022/08/31 06:43:44;;;;;;;22.98;10.32;;;;;;;25.14;61.47;96789.34;5016840;28;20524;-67
2022/08/31 06:46:12;;;;;;;17.13;10.10;;;;;;;24.97;60.76;96715.19;5009548;28;20049;-75
2022/08/31 06:48:40;;;;;;;17.00;9.32;;;;;;;25.25;60.08;96728.06;5009859;28;20057;-67
2022/08/31 06:51:08;;;;;;;17.80;9.65;;;;;;;26.08;58.71;96795.53;5012774;28;20580;-69
2022/08/31 06:53:38;;;;;;;13.13;9.80;;;;;;;24.96;57.74;96600.22;5004403;28;20058;-68
2022/08/31 06:56:08;;;;;;;18.63;10.45;;;;;;;26.54;57.67;96790.44;5005865;28;20045;-67
2022/08/31 06:58:48;;;;;;;12.07;10.10;;;;;;;26.60;56.55;96797.03;5017501;28;20060;-67
2022/08/31 07:01:28;;;;;;;14.15;9.85;;;;;;;25.99;56.63;96689.69;5005950;28;20139;-69
2022/08/31 07:04:04;;;;;;;14.57;9.15;;;;;;;26.76;56.36;96788.13;5017958;28;20073;-69
2022/08/31 07:06:36;;;;;;;12.30;9.18;;;;;;;26.38;56.52;96770.97;5025343;28;20412;-68
2022/08/31 07:09:05;;;;;;;13.23;9.48;;;;;;;24.74;54.68;96455.13;5020651;28;20064;-70
2022/08/31 07:11:35;;;;;;;17.73;10.07;;;;;;;27.00;56.26;96791.75;5005684;28;20053;-69
2022/08/31 07:14:12;;;;;;;16.25;8.68;;;;;;;26.07;54.60;96605.78;5005490;28;20049;-67
2022/08/31 07:16:39;;;;;;;19.20;9.88;;;;;;;26.89;55.13;96756.63;5004270;28;20065;-69
2022/08/31 07:19:06;;;;;;;12.73;9.23;;;;;;;27.31;54.58;96755.19;5005557;28;20095;-68
2022/08/31 07:21:39;;;;;;;15.82;9.30;;;;;;;27.15;54.94;96786.91;5005401;28;20050;-65
2022/08/31 07:24:06;;;;;;;16.65;10.05;;;;;;;27.31;55.78;96780.78;5005486;28;20053;-66
2022/08/31 07:26:35;;;;;;;16.20;9.23;;;;;;;27.45;53.94;96788.56;5004970;28;20436;-65
2022/08/31 07:29:05;;;;;;;12.95;8.77;;;;;;;27.35;54.71;96789.91;5005148;28;20145;-64
2022/08/31 07:31:43;;;;;;;15.88;9.00;;;;;;;27.07;53.53;96790.59;5004216;28;20078;-68
2022/08/31 07:34:11;;;;;;;14.77;9.15;;;;;;;27.44;53.00;96769.91;5005203;28;20065;-69
2022/08/31 07:42:12;;;;;;;12.68;9.68;;;;;;;28.18;50.92;96709.59;5020428;28;20053;-69
2022/08/31 07:44:42;;;;;;;18.02;9.75;;;;;;;28.54;50.51;96744.63;5015623;28;20058;-74
2022/08/31 07:47:20;;;;;;;29.33;16.88;;;;;;;28.44;49.85;96677.63;5011284;28;20050;-71
2022/08/31 07:49:51;;;;;;;16.98;10.38;;;;;;;28.12;51.16;96779.97;5014563;28;20058;-70
2022/08/31 07:52:31;;;;;;;19.73;10.43;;;;;;;28.60;50.71;96762.59;5010571;28;20053;-68
2022/08/31 07:55:09;;;;;;;17.85;10.32;;;;;;;28.89;50.06;96766.13;5012871;28;20085;-67
2022/08/31 07:57:42;;;;;;;12.98;9.32;;;;;;;29.08;49.46;96758.88;5003245;28;20547;-69
2022/08/31 08:00:16;;;;;;;18.92;9.38;;;;;;;29.11;48.04;96739.97;5018794;28;20046;-67
2022/08/31 08:02:46;;;;;;;13.05;9.77;;;;;;;28.75;48.67;96763.31;5012661;28;20050;-67
2022/08/31 08:05:22;;;;;;;20.17;11.77;;;;;;;29.15;48.79;96757.66;5010913;28;20348;-72
2022/08/31 08:07:56;;;;;;;14.55;8.88;;;;;;;29.30;47.73;96758.34;5008779;28;20813;-68
2022/08/31 08:10:25;;;;;;;19.55;9.60;;;;;;;27.74;47.36;96512.44;5006671;28;20064;-64
2022/08/31 08:13:01;;;;;;;15.38;9.63;;;;;;;29.49;47.17;96725.34;5007181;28;20053;-69
2022/08/31 08:15:37;;;;;;;16.17;9.60;;;;;;;29.27;47.07;96696.56;5005654;28;20058;-61
2022/08/31 08:18:06;;;;;;;16.52;9.90;;;;;;;29.31;48.06;96726.44;5016157;28;20159;-69
2022/08/31 08:20:33;;;;;;;18.00;9.02;;;;;;;28.96;48.05;96724.97;5012620;28;20458;-65
2022/08/31 08:23:13;;;;;;;16.75;8.95;;;;;;;29.48;47.66;96712.38;5016779;28;20508;-73
2022/08/31 08:25:45;;;;;;;17.90;10.15;;;;;;;29.69;47.18;96727.41;5015750;28;20080;-67
2022/08/31 08:28:16;;;;;;;113.38;80.20;;;;;;;29.27;48.47;96739.38;5002762;28;20535;-66
2022/08/31 08:31:04;;;;;;;19.77;10.45;;;;;;;29.83;46.86;96738.66;5014887;28;20420;-72
2022/08/31 08:33:33;;;;;;;17.27;9.38;;;;;;;30.09;46.41;96733.72;5021921;28;20131;-67
2022/08/31 08:36:03;;;;;;;17.70;11.40;;;;;;;30.09;45.34;96692.91;5017557;28;20049;-68
2022/08/31 08:38:30;;;;;;;24.27;11.00;;;;;;;30.18;44.71;96684.94;5017395;28;20057;-63
2022/08/31 08:40:59;;;;;;;19.27;9.70;;;;;;;30.63;44.04;96712.56;5020894;28;20105;-59
2022/08/31 08:43:33;;;;;;;17.25;9.75;;;;;;;30.54;44.04;96671.94;5012746;28;20057;-65
2022/08/31 08:46:03;;;;;;;18.52;8.88;;;;;;;30.61;43.13;96649.34;5012261;28;20065;-64
2022/08/31 08:48:51;;;;;;;11.55;7.75;;;;;;;30.77;42.12;96745.16;5011488;28;20076;-69
2022/08/31 08:51:26;;;;;;;19.55;9.23;;;;;;;30.08;42.80;96652.13;5014538;28;20127;-63
2022/08/31 08:54:01;;;;;;;17.02;9.13;;;;;;;30.85;41.68;96704.09;5009873;28;20128;-71
2022/08/31 08:56:28;;;;;;;16.02;7.85;;;;;;;30.45;41.30;96735.81;5022028;28;20065;-66
2022/08/31 08:59:00;;;;;;;24.73;9.50;;;;;;;30.81;41.19;96732.16;5015182;28;20048;-66
2022/08/31 09:01:28;;;;;;;17.10;8.30;;;;;;;30.91;41.11;96707.78;5004462;28;20058;-65
2022/08/31 09:03:58;;;;;;;17.13;9.25;;;;;;;31.39;41.01;96729.81;5015076;28;20060;-65
2022/08/31 09:06:45;;;;;;;13.20;7.82;;;;;;;31.16;42.94;96733.91;5023900;28;20085;-68
2022/08/31 09:09:40;;;;;;;14.82;8.45;;;;;;;30.86;44.32;96730.63;5015618;28;20049;-61
2022/08/31 09:12:45;;;;;;;19.40;9.48;;;;;;;30.61;43.97;96723.72;5006743;28;20045;-66
2022/08/31 09:15:14;;;;;;;;;;;;;;;30.80;44.82;96727.75;5013225;28;20049;-71
2022/08/31 09:17:54;;;;;;;22.50;10.23;;;;;;;31.19;43.65;96727.91;5022073;28;19929;-66
2022/08/31 09:20:27;;;;;;;25.77;9.60;;;;;;;30.84;43.50;96725.41;5026151;28;20061;-68
2022/08/31 09:22:56;;;;;;;21.50;10.38;;;;;;;30.89;43.07;96716.09;5021072;28;20064;-65
2022/08/31 09:25:31;;;;;;;22.08;10.60;;;;;;;30.42;44.50;96699.69;5012529;28;20045;-63
2022/08/31 09:28:06;;;;;;;17.90;9.15;;;;;;;30.62;42.43;96662.34;5006763;28;20127;-62
2022/08/31 09:30:35;;;;;;;15.85;8.68;;;;;;;30.88;42.68;96731.69;5006760;28;20049;-62
2022/08/31 09:33:02;;;;;;;23.88;9.98;;;;;;;30.12;44.60;96738.41;5007805;28;20063;-62
2022/08/31 09:35:39;;;;;;;11.82;6.95;;;;;;;29.73;42.74;96742.22;5008011;28;20453;-61
2022/08/31 09:38:16;;;;;;;16.42;6.88;;;;;;;29.37;42.25;96743.66;5007224;28;20054;-63
2022/08/31 09:40:48;;;;;;;11.25;6.00;;;;;;;28.70;42.40;96727.75;5007911;28;20060;-63
2022/08/31 09:43:30;;;;;;;10.80;5.78;;;;;;;28.43;42.15;96750.13;5020043;28;20061;-62
2022/08/31 09:46:10;;;;;;;;;;;;;;;28.09;42.55;96763.84;5027869;28;20053;-61
2022/08/31 09:48:50;;;;;;;16.63;5.90;;;;;;;27.55;43.92;96752.25;5027386;28;19960;-62
2022/08/31 09:51:35;;;;;;;11.63;6.10;;;;;;;27.73;43.29;96752.84;5027346;28;20103;-62
2022/08/31 09:56:54;;;;;;;12.50;6.20;;;;;;;27.85;43.59;96743.22;5027400;28;20049;-61
2022/08/31 09:59:46;;;;;;;17.27;6.38;;;;;;;28.13;43.51;96738.81;5026916;28;20053;-64
2022/08/31 10:02:25;;;;;;;20.95;6.68;;;;;;;28.49;43.55;96737.56;5022204;28;20537;-62
2022/08/31 10:04:59;;;;;;;15.77;6.18;;;;;;;29.08;42.88;96721.78;5027172;28;20072;-64
2022/08/31 10:07:51;;;;;;;13.52;6.65;;;;;;;29.49;43.34;96702.50;5021801;28;20081;-67
2022/08/31 10:10:29;;;;;;;13.18;5.97;;;;;;;29.83;43.86;96717.91;5024564;28;20045;-65
2022/08/31 10:13:15;;;;;;;13.50;7.22;;;;;;;29.34;44.44;96644.75;5026150;28;20503;-66
2022/08/31 10:15:49;;;;;;;14.02;7.35;;;;;;;29.42;45.60;96694.38;5025419;28;20451;-64
2022/08/31 10:18:54;;;;;;;12.00;7.18;;;;;;;29.40;46.69;96716.94;5019879;28;20504;-70
2022/08/31 10:21:34;;;;;;;13.45;7.53;;;;;;;29.10;47.32;96669.94;4974705;28;20519;-67
2022/08/31 10:24:19;;;;;;;24.25;8.90;;;;;;;29.17;48.35;96692.31;5012335;28;20048;-64
2022/08/31 10:26:52;;;;;;;23.65;10.07;;;;;;;28.32;49.60;96613.19;5021034;28;20314;-63
2022/08/31 10:29:33;;;;;;;19.85;9.65;;;;;;;28.27;50.50;96633.84;5014447;28;20628;-70
2022/08/31 10:32:08;;;;;;;21.60;10.65;;;;;;;28.66;50.63;96704.34;5017949;28;20049;-65
2022/08/31 10:37:49;;;;;;;13.13;8.80;;;;;;;28.54;50.95;96724.66;5011191;28;20049;-65
2022/08/31 10:40:22;;;;;;;15.63;8.90;;;;;;;28.15;51.06;96670.72;5010199;28;20678;-63
2022/08/31 10:43:07;;;;;;;;;;;;;;;28.40;51.47;96705.53;5017438;28;20487;-65
2022/08/31 10:45:40;;;;;;;22.92;8.27;;;;;;;28.08;51.39;96671.16;5026449;28;20373;-69
2022/08/31 10:48:11;;;;;;;15.43;8.43;;;;;;;28.25;50.47;96696.25;5021880;28;20062;-64
2022/08/31 10:50:44;;;;;;;15.80;8.45;;;;;;;28.29;50.25;96702.50;5025870;28;20045;-67
2022/08/31 10:53:32;;;;;;;14.33;8.83;;;;;;;28.22;50.64;96697.25;5025677;28;20056;-71
2022/08/31 10:56:15;;;;;;;12.40;8.60;;;;;;;28.34;50.04;96698.97;5024754;28;20049;-67
2022/08/31 10:59:12;;;;;;;14.95;8.48;;;;;;;28.43;49.34;96695.97;5026027;28;20045;-66
2022/08/31 11:01:54;;;;;;;16.00;8.48;;;;;;;28.48;49.37;96710.34;5009597;28;20480;-67
2022/08/31 11:04:36;;;;;;;21.63;9.20;;;;;;;28.49;49.53;96705.41;5007076;28;20809;-68
2022/08/31 11:07:27;;;;;;;17.85;8.68;;;;;;;28.51;49.47;96708.56;5023893;28;20132;-65
2022/08/31 11:10:06;;;;;;;24.20;9.38;;;;;;;28.64;48.98;96712.66;5025854;28;20053;-66
2022/08/31 11:12:41;;;;;;;18.00;8.35;;;;;;;27.57;48.33;96534.19;5006764;28;20077;-70
2022/08/31 11:15:38;;;;;;;20.35;8.00;;;;;;;28.93;48.14;96711.69;5005458;28;20049;-61
2022/08/31 11:18:35;;;;;;;17.15;9.85;;;;;;;29.00;48.41;96705.56;5005458;28;20492;-66
2022/08/31 11:21:25;;;;;;;12.48;7.68;;;;;;;28.90;49.01;96707.00;5005493;28;20065;-67
2022/08/31 11:24:17;;;;;;;18.00;7.90;;;;;;;28.76;49.95;96696.44;5009332;28;20054;-63
2022/08/31 11:27:04;;;;;;;16.20;8.07;;;;;;;28.71;50.98;96705.72;5005808;28;20061;-66
2022/08/31 11:29:40;;;;;;;14.55;7.57;;;;;;;26.63;52.30;96409.59;4964596;28;20073;-61
2022/08/31 11:32:22;;;;;;;14.35;8.18;;;;;;;28.38;52.78;96699.53;5006906;28;20042;-65
2022/08/31 11:34:52;;;;;;;16.58;8.23;;;;;;;28.18;52.41;96658.31;5012279;28;20045;-68
2022/08/31 11:37:54;;;;;;;16.27;8.15;;;;;;;28.71;50.83;96705.72;5020032;28;20153;-73
2022/08/31 11:40:40;;;;;;;16.40;8.95;;;;;;;28.85;49.90;96704.88;5011336;28;20452;-63
2022/08/31 11:43:14;;;;;;;20.45;8.07;;;;;;;29.02;50.93;96697.31;5011153;28;20054;-63
2022/08/31 11:45:42;;;;;;;20.02;8.80;;;;;;;28.86;50.49;96638.00;5012947;28;20060;-64
2022/08/31 11:48:50;;;;;;;16.30;9.43;;;;;;;29.38;53.43;96690.97;5022432;28;20049;-63
2022/08/31 11:51:36;;;;;;;18.23;9.70;;;;;;;29.14;55.92;96684.75;5010759;28;20045;-61
2022/08/31 11:54:25;;;;;;;19.83;10.35;;;;;;;28.92;56.47;96693.81;5004106;28;20053;-65
2022/08/31 11:56:55;;;;;;;17.17;10.20;;;;;;;28.37;56.63;96583.97;5004194;28;20050;-65
2022/08/31 11:59:32;;;;;;;19.35;9.75;;;;;;;28.42;58.72;96611.78;5006422;28;20058;-74